Terminal Aerodrome Forecast
Issued by NWS Portland, OR

Home | Current Version | Previous Version | Text Only | Print | Product List | Glossary On
Versions: 1 2 3 4 5 6 7 8 9 10 11 12 13 14 15 16 17 18 19 20 21 22 23 24 25 26 27 28
000
FTUS46 KPQR 292339
TAFSLE
TAF
KSLE 292339Z 3000/3024 30008KT P6SM BKN050
     FM301000 28004KT P6SM OVC025
     FM301800 23005KT P6SM SCT022 OVC035
     FM302200 34006KT P6SM BKN035 OVC050=

USA.gov is the U.S. government's official web portal to all federal, state and local government web resources and services.